createdAt,value
2023-05-10T00:02:27.911Z,73180.13
2023-05-10T00:07:29.531Z,73189.28
2023-05-10T00:12:31.230Z,73190.78
2023-05-10T00:17:33.139Z,73186.22
2023-05-10T00:22:34.720Z,73184.69
2023-05-10T00:27:36.274Z,73177.06
2023-05-10T00:32:37.772Z,73181.63
2023-05-10T00:37:39.618Z,73178.59
2023-05-10T00:42:41.309Z,73172.47
2023-05-10T00:47:43.196Z,73172.47
2023-05-10T00:52:44.817Z,73163.31
2023-05-10T00:57:46.651Z,73163.31
2023-05-10T01:02:48.741Z,73157.22
2023-05-10T01:07:51.041Z,73157.22
2023-05-10T01:12:53.888Z,73163.31
2023-05-10T01:17:57.540Z,73158.75
2023-05-10T01:23:56.636Z,73160.28
2023-05-10T01:29:30.919Z,73175.53
2023-05-10T01:34:41.753Z,73172.47
2023-05-10T01:39:55.686Z,73174.00
2023-05-10T01:45:28.312Z,73172.47
2023-05-10T01:50:31.534Z,73175.53
2023-05-10T01:55:40.828Z,73175.53
2023-05-10T02:00:48.115Z,73167.91
2023-05-10T02:05:51.425Z,73170.97
2023-05-10T02:10:56.628Z,73175.53
2023-05-10T02:15:59.017Z,73178.59
2023-05-10T02:21:02.365Z,73181.63
2023-05-10T02:26:06.699Z,73184.69
2023-05-10T02:31:10.123Z,73189.28
2023-05-10T02:36:14.956Z,73183.16
2023-05-10T02:41:17.300Z,73186.22
2023-05-10T02:46:19.499Z,73186.22
2023-05-10T02:51:25.577Z,73184.69
2023-05-10T02:56:34.526Z,73183.16
2023-05-10T03:01:37.029Z,73184.69
2023-05-10T03:06:38.649Z,73184.69
2023-05-10T03:11:52.436Z,73192.31
2023-05-10T03:17:08.099Z,73198.44
2023-05-10T03:22:12.171Z,73210.63
2023-05-10T03:27:15.845Z,73230.47
2023-05-10T03:32:17.877Z,73257.94
2023-05-10T03:37:19.696Z,73279.28
2023-05-10T03:42:21.561Z,73305.25
2023-05-10T03:47:23.142Z,73305.25
2023-05-10T03:52:24.895Z,73320.50
2023-05-10T03:57:26.462Z,73314.41
2023-05-10T04:02:28.205Z,73300.66
2023-05-10T04:07:30.250Z,73285.41
2023-05-10T04:12:31.829Z,73271.66
2023-05-10T04:17:33.362Z,73270.13
2023-05-10T04:22:34.919Z,73264.03
2023-05-10T04:27:36.593Z,73267.09
2023-05-10T04:32:38.204Z,73259.47
2023-05-10T04:37:39.818Z,73264.03
2023-05-10T04:42:42.353Z,73270.13
2023-05-10T04:47:43.882Z,73270.13
2023-05-10T04:52:45.887Z,73273.19
2023-05-10T04:57:47.391Z,73286.94
2023-05-10T05:02:48.942Z,73303.72
2023-05-10T05:07:50.496Z,73325.06
2023-05-10T05:12:52.017Z,73328.13
2023-05-10T05:17:53.593Z,73334.22
2023-05-10T05:22:55.299Z,73334.22
2023-05-10T05:27:56.929Z,73343.38
2023-05-10T05:32:58.551Z,73343.38
2023-05-10T05:38:00.120Z,73349.50
2023-05-10T05:43:01.596Z,73358.66
2023-05-10T05:48:03.344Z,73358.66
2023-05-10T05:53:04.895Z,73349.50
2023-05-10T05:58:06.476Z,73352.53
2023-05-10T06:03:08.372Z,73346.44
2023-05-10T06:08:09.961Z,73346.44
2023-05-10T06:13:11.721Z,73335.75
2023-05-10T06:18:13.384Z,73341.84
2023-05-10T06:23:14.943Z,73343.38
2023-05-10T06:28:16.514Z,73351.00
2023-05-10T06:33:18.008Z,73343.38
2023-05-10T06:38:19.503Z,73355.59
2023-05-10T06:43:21.254Z,73343.38
2023-05-10T06:48:22.949Z,73347.97
2023-05-10T06:53:24.510Z,73351.00
2023-05-10T06:58:26.087Z,73346.44
2023-05-10T07:03:27.750Z,73344.91
2023-05-10T07:08:29.701Z,73349.50
2023-05-10T07:13:34.884Z,73354.06
2023-05-10T07:18:36.928Z,73346.44
2023-05-10T07:23:38.535Z,73341.84
2023-05-10T07:28:40.301Z,73357.13
2023-05-10T07:33:41.772Z,73357.13
2023-05-10T07:38:43.256Z,73355.59
2023-05-10T07:43:45.139Z,73338.81
2023-05-10T07:48:47.024Z,73349.50
2023-05-10T07:53:48.609Z,73352.53
2023-05-10T07:58:50.840Z,73334.22
2023-05-10T08:03:54.144Z,73343.38
2023-05-10T08:08:56.465Z,73343.38
2023-05-10T08:13:57.966Z,73352.53
2023-05-10T08:18:59.558Z,73358.66
2023-05-10T08:24:01.747Z,73363.22
2023-05-10T08:29:03.344Z,73343.38
2023-05-10T08:34:04.874Z,73318.97
2023-05-10T08:39:13.469Z,73303.72
2023-05-10T08:44:19.172Z,73312.88
2023-05-10T08:49:21.348Z,73328.13
2023-05-10T08:54:24.189Z,73352.53
2023-05-10T08:59:26.463Z,73381.53
2023-05-10T09:04:28.756Z,73372.38
2023-05-10T09:09:30.577Z,73364.75
2023-05-10T09:14:36.221Z,73357.13
2023-05-10T09:19:37.732Z,73354.06
2023-05-10T09:24:43.402Z,73373.91
2023-05-10T09:29:45.033Z,73373.91
2023-05-10T09:34:46.830Z,73378.47
2023-05-10T09:39:48.428Z,73367.78
2023-05-10T09:44:49.895Z,73354.06
2023-05-10T09:49:52.100Z,73334.22
2023-05-10T09:54:54.922Z,73320.50
2023-05-10T09:59:58.385Z,73326.59
2023-05-10T10:05:02.189Z,73326.59
2023-05-10T10:10:05.654Z,73352.53
2023-05-10T10:15:08.951Z,73354.06
2023-05-10T10:20:12.237Z,73346.44
2023-05-10T10:25:16.567Z,73325.06
2023-05-10T10:30:18.312Z,73311.34
2023-05-10T10:35:20.013Z,73285.41
2023-05-10T10:40:31.323Z,73257.94
2023-05-10T10:45:34.279Z,73239.63
2023-05-10T10:50:45.578Z,73227.41
2023-05-10T10:55:48.964Z,73244.19
2023-05-10T11:00:50.637Z,73245.72
2023-05-10T11:05:59.441Z,73264.03
2023-05-10T11:11:00.928Z,73285.41
2023-05-10T11:16:15.742Z,73314.41
2023-05-10T11:21:17.248Z,73343.38
2023-05-10T11:26:19.680Z,73347.97
2023-05-10T11:31:21.824Z,73355.59
2023-05-10T11:36:33.824Z,73373.91
2023-05-10T11:41:35.559Z,73357.13
2023-05-10T11:46:37.720Z,73352.53
2023-05-10T11:51:40.334Z,73367.78
2023-05-10T11:56:42.054Z,73376.94
2023-05-10T12:01:44.239Z,73381.53
2023-05-10T12:06:47.407Z,73404.41
2023-05-10T12:11:48.917Z,73424.25
2023-05-10T12:16:50.568Z,73386.09
2023-05-10T12:21:52.076Z,73364.75
2023-05-10T12:26:53.898Z,73375.44
2023-05-10T12:31:59.621Z,73364.75
2023-05-10T12:37:02.011Z,73349.50
2023-05-10T12:42:03.639Z,73355.59
2023-05-10T12:47:05.290Z,73376.94
2023-05-10T12:52:06.799Z,73381.53
2023-05-10T12:57:08.542Z,73375.44
2023-05-10T13:02:10.870Z,73364.75
2023-05-10T13:07:12.348Z,73347.97
2023-05-10T13:12:13.875Z,73317.44
2023-05-10T13:17:15.664Z,73239.63
2023-05-10T13:22:22.966Z,73265.56
2023-05-10T13:27:30.705Z,73257.94
2023-05-10T13:32:32.289Z,73241.16
2023-05-10T13:37:36.427Z,73225.88
2023-05-10T13:42:38.432Z,73245.72
2023-05-10T13:47:40.060Z,73257.94
2023-05-10T13:52:41.599Z,73259.47
2023-05-10T13:57:44.073Z,73247.25
2023-05-10T14:02:45.657Z,73201.47
2023-05-10T14:07:47.185Z,73172.47
2023-05-10T14:12:48.712Z,73184.69
2023-05-10T14:17:50.267Z,73160.28
2023-05-10T14:22:51.801Z,73177.06
2023-05-10T14:27:55.534Z,73203.00
2023-05-10T14:32:59.203Z,73233.53
2023-05-10T14:38:00.918Z,73253.34
2023-05-10T14:43:02.383Z,73268.63
2023-05-10T14:48:05.477Z,73238.09
2023-05-10T14:53:07.046Z,73227.41
2023-05-10T14:58:08.540Z,73236.56
2023-05-10T15:03:10.220Z,73225.88
2023-05-10T15:08:13.487Z,73209.09
2023-05-10T15:13:15.158Z,73242.69
2023-05-10T15:18:16.659Z,73254.88
2023-05-10T15:23:18.209Z,73251.84
2023-05-10T15:28:19.794Z,73250.31
2023-05-10T15:33:21.491Z,73245.72
2023-05-10T15:38:23.482Z,73251.84
2023-05-10T15:43:24.962Z,73250.31
2023-05-10T15:48:26.432Z,73245.72
2023-05-10T15:53:27.904Z,73222.84
2023-05-10T15:58:29.436Z,73163.31
2023-05-10T16:03:31.154Z,73138.91
2023-05-10T16:08:33.659Z,73166.38
2023-05-10T16:13:35.180Z,73221.31
2023-05-10T16:18:36.794Z,73257.94
2023-05-10T16:23:38.547Z,73282.34
2023-05-10T16:28:41.090Z,73296.09
2023-05-10T16:33:42.684Z,73296.09
2023-05-10T16:38:44.228Z,73309.81
2023-05-10T16:43:45.688Z,73317.44
2023-05-10T16:48:47.126Z,73334.22
2023-05-10T16:53:48.634Z,73340.34
2023-05-10T16:58:50.181Z,73346.44
2023-05-10T17:03:51.805Z,73303.72
2023-05-10T17:08:53.300Z,73270.13
2023-05-10T17:13:54.759Z,73282.34
2023-05-10T17:18:56.613Z,73282.34
2023-05-10T17:23:58.135Z,73277.78
2023-05-10T17:29:00.206Z,73285.41
2023-05-10T17:34:03.939Z,73305.25
2023-05-10T17:39:06.798Z,73352.53
2023-05-10T17:44:08.291Z,73352.53
2023-05-10T17:49:09.840Z,73395.25
2023-05-10T17:54:11.320Z,73395.25
2023-05-10T17:59:12.788Z,73410.53
2023-05-10T18:04:14.315Z,73413.56
2023-05-10T18:09:16.112Z,73419.69
2023-05-10T18:14:32.017Z,73428.84
2023-05-10T18:19:39.673Z,73434.94
2023-05-10T18:24:41.273Z,73442.56
2023-05-10T18:29:42.841Z,73447.16
2023-05-10T18:34:44.388Z,73451.72
2023-05-10T18:39:45.880Z,73456.31
2023-05-10T18:44:47.349Z,73465.47
2023-05-10T18:49:48.845Z,73473.09
2023-05-10T18:54:50.490Z,73489.88
2023-05-10T18:59:51.954Z,73502.06
2023-05-10T19:04:53.596Z,73508.19
2023-05-10T19:09:55.342Z,73517.34
2023-05-10T19:14:56.807Z,73526.50
2023-05-10T19:19:59.560Z,73534.13
2023-05-10T19:25:01.128Z,73546.31
2023-05-10T19:30:02.921Z,73564.63
2023-05-10T19:35:04.897Z,73575.31
2023-05-10T19:40:09.608Z,73578.38
2023-05-10T19:45:12.090Z,73593.63
2023-05-10T19:50:13.808Z,73613.47
2023-05-10T19:55:26.800Z,73624.16
2023-05-10T20:00:28.701Z,73634.81
2023-05-10T20:05:30.384Z,73648.56
2023-05-10T20:10:32.061Z,73654.66
2023-05-10T20:15:36.437Z,73660.78
2023-05-10T20:20:38.756Z,73666.88
2023-05-10T20:25:40.434Z,73676.03
2023-05-10T20:30:42.230Z,73683.66
2023-05-10T20:35:44.173Z,73694.34
2023-05-10T20:40:46.540Z,73692.81
2023-05-10T20:45:48.547Z,73698.91
2023-05-10T20:50:51.660Z,73706.53
2023-05-10T20:55:53.164Z,73706.53
2023-05-10T21:00:54.946Z,73717.22
2023-05-10T21:05:56.411Z,73718.75
2023-05-10T21:10:58.616Z,73724.84
2023-05-10T21:16:00.340Z,73729.44
2023-05-10T21:21:01.941Z,73730.97
2023-05-10T21:26:04.577Z,73737.06
2023-05-10T21:31:06.512Z,73749.28
2023-05-10T21:36:08.404Z,73746.22
2023-05-10T21:41:10.751Z,73743.16
2023-05-10T21:46:14.186Z,73744.69
2023-05-10T21:51:15.837Z,73752.31
2023-05-10T21:56:17.400Z,73756.91
2023-05-10T22:01:19.173Z,73763.00
2023-05-10T22:06:20.879Z,73764.53
2023-05-10T22:11:23.107Z,73764.53
2023-05-10T22:16:24.724Z,73759.94
2023-05-10T22:21:26.199Z,73761.47
2023-05-10T22:26:27.692Z,73752.31
2023-05-10T22:31:29.472Z,73758.44
2023-05-10T22:36:31.496Z,73759.94
2023-05-10T22:41:34.044Z,73761.47
2023-05-10T22:46:36.941Z,73772.16
2023-05-10T22:51:38.508Z,73770.63
2023-05-10T22:56:40.006Z,73770.63
2023-05-10T23:01:41.672Z,73790.47
2023-05-10T23:06:43.309Z,73788.94
2023-05-10T23:11:44.795Z,73801.16
2023-05-10T23:16:46.674Z,73807.25
2023-05-10T23:21:48.924Z,73824.03
2023-05-10T23:26:51.113Z,73843.88
2023-05-10T23:31:52.875Z,73843.88
2023-05-10T23:36:54.408Z,73859.13
2023-05-10T23:41:55.888Z,73878.97
2023-05-10T23:46:57.370Z,73883.56
2023-05-10T23:51:58.828Z,73898.81
2023-05-10T23:57:00.908Z,73904.91
